Time;durP1;ratioP1;P1;durP2;ratioP2;P2;SDS_P1;SDS_P2;PMS_P1;PMS_P2;Temp;Humidity;BMP_temperature;BMP_pressure;BME280_temperature;BME280_humidity;BME280_pressure;Samples;Min_cycle;Max_cycle;Signal;HPM_P1;HPM_P2
2023/02/15 00:00:21;;;;;;;15.30;7.53;;;;;;;4.52;57.05;102120.28;5010086;28;20383;-82
2023/02/15 00:02:47;;;;;;;13.73;7.93;;;;;;;4.56;56.91;102109.38;5007356;28;20038;-81
2023/02/15 00:05:12;;;;;;;14.87;8.30;;;;;;;4.64;56.69;102112.47;5018127;28;20072;-83
2023/02/15 00:07:38;;;;;;;17.50;8.43;;;;;;;4.70;56.65;102107.75;5017429;28;20044;-80
2023/02/15 00:10:06;;;;;;;13.83;7.87;;;;;;;4.73;56.68;102113.78;4995038;28;20025;-82
2023/02/15 00:12:31;;;;;;;14.73;8.30;;;;;;;4.63;56.74;102100.09;4975071;28;20053;-82
2023/02/15 00:14:58;;;;;;;15.23;8.37;;;;;;;4.65;57.13;102118.66;4977971;28;20046;-81
2023/02/15 00:17:23;;;;;;;;;;;;;;;4.66;57.32;102112.41;4991881;28;20293;-80
2023/02/15 00:19:49;;;;;;;16.77;8.20;;;;;;;4.59;57.44;102111.03;5006495;28;19909;-82
2023/02/15 00:22:14;;;;;;;13.98;7.50;;;;;;;4.46;57.85;102100.19;5002199;28;20041;-82
2023/02/15 00:24:40;;;;;;;13.52;7.90;;;;;;;4.56;57.74;102111.19;4995633;28;20042;-82
2023/02/15 00:27:06;;;;;;;16.88;8.13;;;;;;;4.48;57.99;102102.78;5002718;28;20041;-82
2023/02/15 00:29:33;;;;;;;15.07;7.80;;;;;;;4.63;57.85;102109.91;4994681;28;20108;-79
2023/02/15 00:31:58;;;;;;;15.88;7.85;;;;;;;4.43;58.32;102109.22;4989720;28;20328;-81
2023/02/15 00:34:26;;;;;;;16.53;8.57;;;;;;;4.21;58.59;102087.38;4990674;28;20038;-82
2023/02/15 00:36:51;;;;;;;15.88;7.72;;;;;;;4.18;59.23;102108.88;4991053;28;20132;-82
2023/02/15 00:39:17;;;;;;;14.90;7.77;;;;;;;4.22;59.05;102100.63;4974274;28;20371;-81
2023/02/15 00:41:44;;;;;;;15.30;8.05;;;;;;;4.17;59.19;102108.00;4988968;28;20040;-82
2023/02/15 00:44:09;;;;;;;16.30;7.95;;;;;;;4.09;59.49;102110.22;5007068;28;20494;-83
2023/02/15 00:46:35;;;;;;;14.70;7.90;;;;;;;4.04;59.56;102093.66;4987733;28;20033;-80
2023/02/15 00:49:03;;;;;;;16.55;8.18;;;;;;;4.05;59.72;102118.44;5006590;28;20096;-82
2023/02/15 00:51:28;;;;;;;13.60;7.68;;;;;;;3.94;59.98;102106.59;5006032;28;20155;-82
2023/02/15 00:53:54;;;;;;;16.67;7.63;;;;;;;3.90;60.10;102091.72;5010165;28;20548;-82
2023/02/15 00:56:20;;;;;;;15.43;7.57;;;;;;;3.94;60.22;102103.94;5010884;28;20364;-83
2023/02/15 00:58:45;;;;;;;15.97;8.03;;;;;;;3.87;60.34;102107.88;4996859;28;20166;-83
2023/02/15 01:01:16;;;;;;;14.83;8.60;;;;;;;3.83;60.50;102114.28;4969811;28;20784;-83
2023/02/15 01:03:42;;;;;;;18.10;8.43;;;;;;;3.73;60.77;102103.28;4981977;28;20046;-82
2023/02/15 01:06:09;;;;;;;15.32;8.40;;;;;;;3.80;60.36;102103.81;5008716;28;20067;-83
2023/02/15 01:08:35;;;;;;;14.98;7.88;;;;;;;3.66;60.93;102093.06;4992997;28;20038;-79
2023/02/15 01:11:13;;;;;;;15.40;8.13;;;;;;;3.74;61.01;102104.13;4958471;28;20042;-80
2023/02/15 01:13:39;;;;;;;15.40;7.85;;;;;;;3.62;60.71;102078.19;4971779;28;20073;-82
2023/02/15 01:16:06;;;;;;;15.90;8.23;;;;;;;3.63;61.15;102095.84;5001653;28;20054;-79
2023/02/15 01:18:31;;;;;;;17.17;8.15;;;;;;;3.55;61.77;102104.25;4966725;28;20133;-82
2023/02/15 01:20:57;;;;;;;17.27;8.25;;;;;;;3.49;61.85;102100.13;4985452;28;20046;-80
2023/02/15 01:23:23;;;;;;;17.87;8.67;;;;;;;3.47;61.98;102101.13;4986284;28;20057;-82
2023/02/15 01:25:49;;;;;;;15.10;7.85;;;;;;;3.60;61.67;102118.16;4987422;28;20026;-84
2023/02/15 01:28:15;;;;;;;17.05;8.50;;;;;;;3.57;62.03;102124.50;5007704;28;20080;-82
2023/02/15 01:30:41;;;;;;;18.50;8.20;;;;;;;3.50;62.24;102117.78;4987941;28;20033;-84
2023/02/15 01:33:07;;;;;;;18.17;8.38;;;;;;;3.47;62.35;102115.28;5008810;28;20033;-84
2023/02/15 01:35:34;;;;;;;17.95;8.00;;;;;;;3.29;62.69;102097.63;5006100;28;20045;-84
2023/02/15 01:37:59;;;;;;;15.20;8.32;;;;;;;3.34;63.04;102106.22;4974932;28;20053;-82
2023/02/15 01:40:25;;;;;;;15.23;8.53;;;;;;;3.23;63.02;102088.19;5009563;28;20156;-79
2023/02/15 01:42:53;;;;;;;17.48;7.97;;;;;;;3.40;62.81;102099.75;5010668;28;20055;-82
2023/02/15 01:45:18;;;;;;;14.82;8.35;;;;;;;3.33;63.01;102104.50;4978467;28;20042;-81
2023/02/15 01:48:01;;;;;;;17.03;8.07;;;;;;;3.21;63.37;102089.16;5008327;28;20100;-83
2023/02/15 01:50:50;;;;;;;16.35;7.60;;;;;;;3.32;63.27;102108.09;4991188;28;20487;-81
2023/02/15 01:53:17;;;;;;;18.40;8.25;;;;;;;3.28;63.24;102106.56;4973462;28;20422;-81
2023/02/15 01:56:05;;;;;;;15.63;8.35;;;;;;;3.14;63.83;102108.09;4974205;28;20391;-81
2023/02/15 01:58:32;;;;;;;16.77;8.02;;;;;;;3.03;64.05;102097.16;4992378;28;20489;-81
2023/02/15 02:00:59;;;;;;;16.67;8.40;;;;;;;3.07;64.17;102113.81;4954653;28;20042;-80
2023/02/15 02:03:40;;;;;;;18.83;8.00;;;;;;;3.02;64.55;102113.16;4990866;28;20421;-82
2023/02/15 02:06:06;;;;;;;16.38;8.32;;;;;;;2.92;64.80;102099.47;5007845;28;20618;-84
2023/02/15 02:08:31;;;;;;;18.02;9.68;;;;;;;2.77;65.38;102111.72;5009947;28;20033;-83
2023/02/15 02:10:58;;;;;;;19.43;9.93;;;;;;;2.83;65.27;102110.56;4973025;28;20038;-82
2023/02/15 02:13:24;;;;;;;20.80;9.43;;;;;;;2.89;65.15;102112.91;4972641;28;20816;-82
2023/02/15 02:15:57;;;;;;;;;;;;;;;2.78;65.47;102113.44;4969502;28;20042;-81
2023/02/15 02:18:41;;;;;;;16.80;8.95;;;;;;;2.71;65.66;102104.91;4971193;28;19913;-82
2023/02/15 03:43:33;;;;;;;18.48;9.57;;;;;;;2.88;67.50;102166.97;5100111;27;20413;-84
2023/02/15 03:46:07;;;;;;;18.05;8.75;;;;;;;2.72;67.71;102154.44;5070357;28;20176;-84
2023/02/15 03:48:39;;;;;;;18.23;8.65;;;;;;;2.73;67.50;102140.22;5068501;28;20943;-84
2023/02/15 03:53:56;;;;;;;15.07;7.78;;;;;;;2.89;67.12;102163.41;5090630;28;20039;-87
2023/02/15 03:56:21;;;;;;;18.53;7.53;;;;;;;2.73;67.79;102173.88;5068080;28;20027;-84
2023/02/15 04:01:57;;;;;;;16.10;7.90;;;;;;;2.70;67.56;102164.28;5069113;28;20314;-84
2023/02/15 04:04:25;;;;;;;17.73;7.97;;;;;;;2.66;67.69;102168.00;5052457;28;20413;-83
2023/02/15 04:06:51;;;;;;;14.95;7.25;;;;;;;2.71;67.49;102165.13;5072612;28;20491;-85
2023/02/15 04:12:00;;;;;;;16.23;8.15;;;;;;;2.65;67.47;102158.31;5086715;28;20051;-84
2023/02/15 04:17:13;;;;;;;17.02;8.30;;;;;;;2.54;67.75;102158.81;5095420;28;20040;-84
2023/02/15 04:25:14;;;;;;;16.77;7.90;;;;;;;2.52;68.63;102186.38;5085197;28;20039;-81
2023/02/15 04:27:43;;;;;;;14.88;7.15;;;;;;;2.50;68.58;102196.22;5084570;28;20036;-84
2023/02/15 04:30:09;;;;;;;19.20;8.10;;;;;;;2.49;68.55;102190.03;5065142;28;20038;-83
2023/02/15 04:32:35;;;;;;;16.35;8.00;;;;;;;2.44;69.02;102199.16;5066210;28;20028;-84
2023/02/15 04:35:01;;;;;;;17.30;8.05;;;;;;;2.43;68.94;102202.72;5085032;28;20047;-85
2023/02/15 04:37:26;;;;;;;18.53;8.33;;;;;;;2.42;68.80;102196.56;5086541;28;20024;-83
2023/02/15 04:39:51;;;;;;;14.47;7.70;;;;;;;2.49;68.58;102200.66;5086115;28;20032;-81
2023/02/15 04:42:17;;;;;;;18.50;8.37;;;;;;;2.38;68.97;102191.47;5078373;28;20494;-82
2023/02/15 04:44:50;;;;;;;18.27;8.27;;;;;;;2.50;68.58;102207.69;5071848;28;20036;-83
2023/02/15 04:47:16;;;;;;;18.02;8.68;;;;;;;2.50;68.58;102209.47;5071375;28;20028;-81
2023/02/15 04:49:41;;;;;;;18.55;8.52;;;;;;;2.44;68.84;102215.09;5083712;28;20033;-81
2023/02/15 04:52:08;;;;;;;18.40;8.17;;;;;;;2.42;68.81;102195.72;5078918;28;20066;-82
2023/02/15 04:54:34;;;;;;;18.95;8.65;;;;;;;2.55;68.63;102228.72;5089977;28;20514;-82
2023/02/15 04:57:00;;;;;;;18.77;8.77;;;;;;;2.45;68.69;102217.66;5058145;28;20063;-81
2023/02/15 04:59:26;;;;;;;16.85;8.27;;;;;;;2.37;68.95;102213.66;5088336;28;20245;-82
2023/02/15 05:01:51;;;;;;;15.97;7.50;;;;;;;2.38;68.91;102220.69;5065335;28;20040;-82
2023/02/15 05:04:17;;;;;;;21.37;8.47;;;;;;;2.35;69.23;102220.81;5076123;28;20027;-82
2023/02/15 05:06:43;;;;;;;22.53;8.83;;;;;;;2.46;68.83;102245.94;5084514;28;20043;-82
2023/02/15 05:09:08;;;;;;;17.30;8.52;;;;;;;2.52;68.69;102245.66;5080641;28;20481;-84
2023/02/15 05:11:34;;;;;;;18.77;8.77;;;;;;;2.60;68.38;102247.97;5064757;28;20044;-82
2023/02/15 05:14:00;;;;;;;17.87;8.20;;;;;;;2.48;68.38;102241.44;5085413;28;20047;-82
2023/02/15 05:16:27;;;;;;;17.75;8.52;;;;;;;2.47;68.77;102252.13;5086786;28;20056;-83
2023/02/15 05:18:54;;;;;;;15.90;8.05;;;;;;;2.39;68.64;102233.00;5062772;28;20044;-87
2023/02/15 05:21:21;;;;;;;22.50;9.65;;;;;;;2.62;68.17;102262.06;5081751;28;20063;-86
2023/02/15 05:23:46;;;;;;;24.23;11.13;;;;;;;2.60;68.29;102268.34;5084096;28;20119;-83
2023/02/15 05:28:56;;;;;;;18.83;8.80;;;;;;;2.53;68.32;102273.09;5055255;28;20166;-83
2023/02/15 05:31:22;;;;;;;21.23;8.47;;;;;;;2.52;68.56;102263.38;5070855;28;20029;-86
2023/02/15 05:33:47;;;;;;;15.90;7.47;;;;;;;2.69;67.94;102271.47;5069951;28;20040;-83
2023/02/15 05:36:13;;;;;;;22.00;8.32;;;;;;;2.90;67.55;102271.38;5072013;28;20024;-86
2023/02/15 05:38:40;;;;;;;16.05;7.60;;;;;;;2.96;66.92;102284.38;5052721;28;20040;-85
2023/02/15 05:41:06;;;;;;;16.90;7.90;;;;;;;2.84;66.96;102264.56;5071492;28;20131;-84
2023/02/15 05:43:32;;;;;;;23.02;9.10;;;;;;;3.12;66.54;102282.72;5058210;28;20036;-86
2023/02/15 05:45:57;;;;;;;17.42;8.55;;;;;;;3.10;66.40;102278.41;5072514;28;20038;-84
2023/02/15 05:48:25;;;;;;;20.27;9.20;;;;;;;3.09;66.30;102274.91;5070599;28;20043;-84
2023/02/15 05:51:16;;;;;;;18.50;8.65;;;;;;;3.25;66.20;102298.91;5061922;28;20020;-88
2023/02/15 05:53:44;;;;;;;18.00;8.27;;;;;;;3.38;65.69;102285.91;5057018;28;20024;-79
2023/02/15 05:56:11;;;;;;;17.67;8.40;;;;;;;3.26;65.86;102289.19;5067500;28;20061;-89
2023/02/15 05:58:38;;;;;;;17.42;8.48;;;;;;;3.57;65.05;102289.38;5031790;28;20456;-86
2023/02/15 06:01:09;;;;;;;40.97;8.80;;;;;;;4.02;64.11;102295.97;5043719;28;20036;-85
2023/02/15 06:03:35;;;;;;;21.20;8.50;;;;;;;5.42;59.56;102276.91;5048281;28;20044;-85
2023/02/15 06:06:07;;;;;;;17.15;8.55;;;;;;;6.32;56.48;102276.94;5073964;28;20058;-80
2023/02/15 06:08:33;;;;;;;15.65;8.23;;;;;;;6.70;54.37;102280.84;5053513;28;20050;-81
2023/02/15 06:10:58;;;;;;;16.25;7.90;;;;;;;6.29;54.87;102292.25;5072167;28;20087;-81
2023/02/15 06:13:24;;;;;;;16.83;8.17;;;;;;;6.03;56.02;102301.84;5068695;28;20041;-80
2023/02/15 06:15:50;;;;;;;16.02;7.57;;;;;;;6.07;55.55;102304.25;5068254;28;20040;-78
2023/02/15 06:18:18;;;;;;;15.63;7.88;;;;;;;6.05;55.49;102305.28;5069984;28;20052;-79
2023/02/15 06:20:47;;;;;;;24.10;9.00;;;;;;;7.14;53.49;102306.56;5066648;28;20056;-81
2023/02/15 06:23:12;;;;;;;23.67;8.68;;;;;;;9.16;48.10;102302.63;5069184;28;20028;-79
2023/02/15 06:25:38;;;;;;;14.52;8.15;;;;;;;10.96;44.25;102313.09;5066959;28;20158;-78
2023/02/15 06:28:03;;;;;;;14.90;7.97;;;;;;;12.70;40.64;102307.50;5049259;28;20043;-81
2023/02/15 06:30:29;;;;;;;28.42;10.18;;;;;;;13.94;36.81;102298.13;5067955;28;20453;-79
2023/02/15 06:32:54;;;;;;;21.60;9.43;;;;;;;15.33;35.23;102304.66;5047755;28;20055;-80
2023/02/15 06:35:21;;;;;;;17.80;8.05;;;;;;;15.15;34.41;102274.84;5058702;28;20036;-81
2023/02/15 06:37:47;;;;;;;15.15;8.68;;;;;;;15.29;33.58;102301.41;5043599;28;20044;-81
2023/02/15 06:40:14;;;;;;;18.85;8.90;;;;;;;14.32;33.97;102296.38;5062482;28;20036;-80
2023/02/15 06:42:40;;;;;;;15.30;8.77;;;;;;;14.21;34.39;102299.22;5059098;28;20044;-80
2023/02/15 06:45:07;;;;;;;15.85;9.05;;;;;;;15.28;32.45;102307.81;5022786;28;20024;-81
2023/02/15 06:47:33;;;;;;;13.02;8.73;;;;;;;15.03;32.79;102314.84;5052091;28;20117;-80
2023/02/15 06:50:00;;;;;;;15.25;8.57;;;;;;;16.41;31.24;102302.78;5040429;28;20040;-81
2023/02/15 06:52:25;;;;;;;16.98;8.98;;;;;;;17.26;29.10;102322.78;5078553;28;20520;-81
2023/02/15 06:54:51;;;;;;;15.23;8.68;;;;;;;17.54;28.29;102306.19;5065688;28;20123;-81
2023/02/15 06:57:17;;;;;;;17.70;9.73;;;;;;;18.61;27.49;102309.75;5064382;28;20036;-80
2023/02/15 06:59:42;;;;;;;;;;;;;;;18.49;26.67;102309.28;5068894;28;20024;-82
2023/02/15 07:02:09;;;;;;;16.92;8.05;;;;;;;16.58;29.29;102307.31;5068961;28;19931;-80
2023/02/15 07:04:35;;;;;;;18.00;7.78;;;;;;;16.43;29.66;102303.47;5044774;28;20041;-80
2023/02/15 07:07:00;;;;;;;15.25;7.75;;;;;;;16.91;28.97;102312.94;5044291;28;20414;-83
2023/02/15 07:09:28;;;;;;;;;;;;;;;16.78;29.20;102309.78;5068705;28;20032;-80
2023/02/15 07:14:38;;;;;;;14.63;7.93;;;;;;;16.44;29.01;102321.47;5052395;28;20129;-80
2023/02/15 07:17:04;;;;;;;14.23;7.82;;;;;;;15.37;30.89;102325.88;5067392;28;20471;-81
2023/02/15 07:19:30;;;;;;;12.48;6.93;;;;;;;14.50;32.05;102313.56;5068759;28;20488;-81
2023/02/15 07:21:56;;;;;;;11.90;7.07;;;;;;;14.53;32.07;102323.22;5067407;28;20440;-81
2023/02/15 07:24:22;;;;;;;13.38;8.07;;;;;;;14.26;32.58;102318.59;5033745;28;20056;-81
2023/02/15 07:26:57;;;;;;;;;;;;;;;13.55;33.90;102341.34;5068854;28;20058;-79
2023/02/15 07:29:23;;;;;;;13.90;6.93;;;;;;;13.12;34.75;102337.09;5069339;28;19908;-81
2023/02/15 07:31:48;;;;;;;13.77;7.45;;;;;;;12.41;36.11;102329.78;5067688;28;20070;-80
2023/02/15 07:34:14;;;;;;;13.95;7.22;;;;;;;13.10;35.30;102339.06;5067256;28;20044;-80
2023/02/15 07:36:40;;;;;;;19.23;7.85;;;;;;;13.27;35.13;102354.66;5068958;28;20037;-80
2023/02/15 07:39:06;;;;;;;13.30;7.63;;;;;;;13.58;34.49;102341.09;5051386;28;20178;-81
2023/02/15 07:41:31;;;;;;;16.17;9.27;;;;;;;14.56;32.18;102326.53;5049145;28;20045;-81
2023/02/15 07:43:57;;;;;;;18.83;10.15;;;;;;;16.11;30.51;102323.94;5069102;28;20040;-82
2023/02/15 07:46:23;;;;;;;16.20;7.75;;;;;;;17.32;28.14;102313.09;5068976;28;20902;-82
2023/02/15 07:48:49;;;;;;;14.02;6.60;;;;;;;18.10;27.00;102328.22;5064792;28;20356;-81
2023/02/15 07:51:17;;;;;;;;;;;;;;;18.52;26.32;102327.16;5034922;28;20028;-81
2023/02/15 07:53:46;;;;;;;15.77;6.93;;;;;;;20.14;24.32;102306.59;5068631;28;19912;-82
2023/02/15 07:56:12;;;;;;;14.57;7.40;;;;;;;21.09;23.43;102316.84;5058419;28;20116;-81
2023/02/15 07:58:53;;;;;;;13.40;7.65;;;;;;;20.71;22.99;102322.41;5051382;28;20178;-82
2023/02/15 08:01:26;;;;;;;10.27;6.57;;;;;;;20.19;23.22;102315.91;5068905;28;20417;-82
2023/02/15 08:04:54;;;;;;;10.95;6.80;;;;;;;19.60;23.93;102316.50;5068902;28;20077;-81
2023/02/15 08:07:19;;;;;;;12.48;8.50;;;;;;;20.74;23.00;102313.84;5063267;28;20850;-80
2023/02/15 08:09:59;;;;;;;16.48;7.45;;;;;;;22.11;21.57;102304.91;5068481;28;20041;-81
2023/02/15 08:12:28;;;;;;;14.73;7.97;;;;;;;21.18;21.96;102329.38;5067947;28;20028;-80
2023/02/15 08:14:55;;;;;;;11.20;7.00;;;;;;;21.30;21.79;102318.78;5060337;28;20044;-82
2023/02/15 08:17:23;;;;;;;14.18;7.15;;;;;;;20.24;22.73;102342.66;5064056;28;20032;-80
2023/02/15 08:19:49;;;;;;;12.40;7.20;;;;;;;19.37;23.64;102326.53;5071609;28;20024;-80
2023/02/15 08:22:14;;;;;;;12.45;7.22;;;;;;;19.15;24.11;102322.72;5053950;28;20040;-79
2023/02/15 08:24:41;;;;;;;14.82;6.80;;;;;;;18.82;24.37;102327.44;5072722;28;20036;-80
2023/02/15 08:30:59;;;;;;;;;;;;;;;;;;;;;
2023/02/15 08:44:04;;;;;;;10.45;6.82;;;;;;;15.27;28.53;102314.25;4873024;29;20176;-81
2023/02/15 08:46:32;;;;;;;11.00;6.57;;;;;;;15.07;28.62;102340.59;4869926;29;20045;-82
2023/02/15 08:48:58;;;;;;;11.20;7.57;;;;;;;15.90;28.21;102342.41;4911128;29;20063;-81
2023/02/15 08:51:24;;;;;;;;;;;;;;;15.48;28.57;102354.66;4954483;28;20049;-81
2023/02/15 08:53:52;;;;;;;15.13;8.25;;;;;;;14.52;30.25;102341.34;5029364;28;19932;-82
2023/02/15 08:56:19;;;;;;;15.23;9.18;;;;;;;14.05;30.71;102343.97;5003575;28;20112;-81
2023/02/15 08:58:46;;;;;;;22.13;8.73;;;;;;;13.64;31.54;102329.69;4979929;28;20041;-81
2023/02/15 09:01:12;;;;;;;;;;;;;;;13.68;31.18;102339.25;4997555;28;20512;-81
2023/02/15 09:03:39;;;;;;;11.07;7.45;;;;;;;14.96;28.94;102332.66;5025065;28;19920;-82
2023/02/15 09:06:04;;;;;;;13.02;6.22;;;;;;;13.47;31.01;102331.25;5069123;28;20496;-82
2023/02/15 09:08:32;;;;;;;15.88;6.78;;;;;;;12.87;31.53;102312.25;5050907;28;20044;-82
2023/02/15 09:11:13;;;;;;;9.98;6.53;;;;;;;13.35;31.91;102326.09;5067749;28;20572;-82
2023/02/15 09:13:39;;;;;;;13.38;7.45;;;;;;;12.77;32.54;102324.88;5065746;28;20041;-81
2023/02/15 09:16:08;;;;;;;21.92;10.05;;;;;;;13.43;31.21;102337.06;5044714;28;20115;-83
2023/02/15 09:18:37;;;;;;;13.52;6.70;;;;;;;12.54;32.58;102302.59;5033678;28;20105;-81
2023/02/15 09:21:15;;;;;;;10.57;6.80;;;;;;;12.19;33.63;102328.06;5070714;28;20044;-80
2023/02/15 09:23:44;;;;;;;11.23;6.78;;;;;;;11.85;34.25;102335.44;5054061;28;20036;-79
2023/02/15 09:26:11;;;;;;;14.85;7.90;;;;;;;10.46;36.24;102331.41;5056427;28;20034;-80
2023/02/15 09:28:37;;;;;;;16.65;8.40;;;;;;;10.40;36.65;102338.13;5070367;28;20028;-81
2023/02/15 09:31:19;;;;;;;18.42;7.82;;;;;;;10.22;37.01;102337.66;5070366;28;20036;-80
2023/02/15 09:33:46;;;;;;;12.35;6.32;;;;;;;9.76;37.86;102316.97;5052775;28;20067;-81
2023/02/15 09:36:21;;;;;;;11.82;7.15;;;;;;;9.84;38.16;102327.16;5069809;28;20207;-80
2023/02/15 09:38:48;;;;;;;10.98;6.53;;;;;;;9.99;37.89;102322.44;5053444;28;20063;-79
2023/02/15 09:41:38;;;;;;;15.63;7.50;;;;;;;9.40;39.22;102332.16;5069439;28;20063;-80
2023/02/15 09:44:30;;;;;;;16.13;7.20;;;;;;;9.33;39.46;102324.69;5071411;28;20043;-80
2023/02/15 09:47:33;;;;;;;10.57;6.35;;;;;;;9.54;39.48;102327.63;5050568;28;20040;-80
2023/02/15 09:50:01;;;;;;;13.18;6.68;;;;;;;9.65;39.10;102333.06;5064414;28;20086;-81
2023/02/15 09:53:08;;;;;;;13.40;6.40;;;;;;;9.87;38.34;102330.44;5070627;28;20128;-81
2023/02/15 09:55:48;;;;;;;13.02;6.50;;;;;;;10.26;37.79;102319.50;5057910;28;20048;-80
2023/02/15 09:58:25;;;;;;;14.07;6.70;;;;;;;10.25;38.06;102317.75;5070633;28;20124;-79
2023/02/15 10:01:28;;;;;;;11.68;6.60;;;;;;;9.84;38.15;102319.94;5084778;28;20034;-81
2023/02/15 10:04:05;;;;;;;10.70;6.63;;;;;;;10.03;38.01;102310.50;5069862;28;20150;-82
2023/02/15 10:06:50;;;;;;;10.82;6.40;;;;;;;10.43;37.43;102316.38;5061650;28;20125;-80
2023/02/15 10:09:36;;;;;;;13.40;7.40;;;;;;;10.22;37.12;102285.75;5071254;28;20506;-80
2023/02/15 10:12:16;;;;;;;13.02;7.78;;;;;;;11.07;36.09;102305.00;5069995;28;20123;-79
2023/02/15 10:14:55;;;;;;;19.83;7.55;;;;;;;13.18;32.29;102306.84;5054458;28;20037;-80
2023/02/15 10:17:38;;;;;;;12.95;6.72;;;;;;;12.21;33.29;102295.59;5069213;28;20028;-80
2023/02/15 10:20:24;;;;;;;12.85;7.65;;;;;;;11.28;34.97;102297.00;5062078;28;20031;-81
2023/02/15 10:23:08;;;;;;;14.05;7.57;;;;;;;10.64;36.33;102300.38;5068120;28;20035;-80
2023/02/15 10:25:47;;;;;;;16.05;7.88;;;;;;;10.72;36.28;102303.31;5069192;28;20109;-80
2023/02/15 10:28:17;;;;;;;12.02;7.00;;;;;;;11.08;35.23;102273.59;5068906;28;20169;-81
2023/02/15 10:30:50;;;;;;;12.60;7.22;;;;;;;10.71;35.67;102288.16;5069059;28;20077;-80
2023/02/15 10:33:40;;;;;;;15.13;7.88;;;;;;;11.33;35.08;102280.47;5067524;28;20082;-79
2023/02/15 10:36:24;;;;;;;13.63;7.68;;;;;;;10.87;35.96;102282.41;5064113;28;20036;-81
2023/02/15 10:39:21;;;;;;;17.85;10.63;;;;;;;12.21;33.65;102284.78;5051551;28;20040;-81
2023/02/15 10:42:07;;;;;;;12.43;8.40;;;;;;;11.48;34.62;102265.75;5067300;28;20127;-81
2023/02/15 10:44:52;;;;;;;14.10;8.57;;;;;;;11.65;34.14;102271.56;5067802;28;20428;-81
2023/02/15 10:47:43;;;;;;;21.00;8.60;;;;;;;11.20;35.10;102288.72;5071753;28;20059;-81
2023/02/15 10:50:29;;;;;;;14.73;8.35;;;;;;;11.27;34.68;102278.31;5064599;28;20029;-81
2023/02/15 10:53:07;;;;;;;17.98;10.05;;;;;;;10.81;35.73;102280.19;5077010;28;20093;-80
2023/02/15 10:55:54;;;;;;;17.95;9.65;;;;;;;10.44;35.78;102274.19;5069758;28;20060;-81
2023/02/15 10:59:05;;;;;;;15.45;8.82;;;;;;;10.68;35.50;102283.03;5069188;28;20115;-80
2023/02/15 11:01:45;;;;;;;18.42;8.25;;;;;;;11.65;33.92;102274.28;5059346;28;20448;-82
2023/02/15 11:04:23;;;;;;;15.18;8.70;;;;;;;13.70;30.75;102285.91;5066862;28;20043;-82
2023/02/15 11:06:57;;;;;;;17.95;8.57;;;;;;;13.35;30.56;102269.38;5069585;28;20568;-81
2023/02/15 11:09:24;;;;;;;18.65;9.23;;;;;;;12.66;31.80;102274.53;5069537;28;20024;-81
2023/02/15 11:11:53;;;;;;;16.23;8.75;;;;;;;12.92;31.90;102267.81;5053632;28;20041;-81
2023/02/15 11:14:54;;;;;;;13.95;9.27;;;;;;;13.21;31.08;102271.44;5069881;28;20503;-79
2023/02/15 11:17:26;;;;;;;13.85;9.18;;;;;;;15.02;28.72;102267.06;5068853;28;20131;-82
2023/02/15 11:20:29;;;;;;;14.65;9.38;;;;;;;16.77;25.99;102270.06;5052065;28;20031;-81
2023/02/15 11:22:56;;;;;;;12.27;8.63;;;;;;;17.99;24.64;102260.53;5065258;28;20044;-80
2023/02/15 11:25:36;;;;;;;15.57;8.57;;;;;;;17.76;24.44;102265.75;5047870;28;20055;-81
2023/02/15 11:28:05;;;;;;;15.07;10.35;;;;;;;17.25;24.87;102247.66;5071487;28;20029;-82
2023/02/15 11:30:56;;;;;;;13.13;9.75;;;;;;;17.36;24.67;102265.53;5035557;28;20111;-82
2023/02/15 11:33:41;;;;;;;15.93;9.43;;;;;;;18.45;23.64;102263.50;5050754;28;20111;-81
2023/02/15 11:36:12;;;;;;;12.25;8.70;;;;;;;19.40;22.43;102233.44;5062766;28;20029;-81
2023/02/15 11:38:43;;;;;;;14.77;9.20;;;;;;;17.29;24.81;102264.50;5051630;28;20044;-81
2023/02/15 11:41:18;;;;;;;12.32;9.15;;;;;;;15.76;26.96;102259.75;5067165;28;20456;-82
2023/02/15 11:44:10;;;;;;;13.82;9.68;;;;;;;14.79;28.35;102250.34;5067421;28;20047;-81
2023/02/15 11:46:37;;;;;;;17.92;10.27;;;;;;;13.90;29.90;102273.22;5067687;28;20054;-80
2023/02/15 11:49:02;;;;;;;14.23;8.85;;;;;;;12.58;31.00;102268.97;5068153;28;20583;-81
2023/02/15 11:51:28;;;;;;;14.68;9.55;;;;;;;12.57;31.37;102267.28;5034416;28;20384;-83
2023/02/15 11:53:54;;;;;;;16.90;9.40;;;;;;;14.46;29.22;102260.72;5071358;28;20480;-80
2023/02/15 11:56:23;;;;;;;17.48;10.63;;;;;;;14.98;28.67;102227.75;5054775;28;20040;-82
2023/02/15 11:59:00;;;;;;;15.55;8.48;;;;;;;15.71;26.97;102253.91;5054712;28;20044;-82
2023/02/15 12:01:28;;;;;;;13.10;8.60;;;;;;;14.27;28.81;102237.28;5051039;28;20043;-80
2023/02/15 12:04:24;;;;;;;14.25;8.85;;;;;;;13.42;30.30;102251.63;5085183;28;20103;-81
2023/02/15 12:06:54;;;;;;;14.25;9.23;;;;;;;13.43;29.80;102237.09;5088264;28;20056;-81
2023/02/15 12:09:38;;;;;;;13.75;8.70;;;;;;;13.67;29.12;102242.06;5069966;28;20028;-81
2023/02/15 12:12:24;;;;;;;17.05;9.15;;;;;;;13.77;29.14;102228.56;5069152;28;20435;-79
2023/02/15 12:14:54;;;;;;;13.65;8.25;;;;;;;13.72;29.79;102226.31;5066328;28;20414;-82
2023/02/15 12:17:35;;;;;;;13.48;9.00;;;;;;;12.73;30.44;102242.44;5046237;28;20029;-84
2023/02/15 12:20:23;;;;;;;20.92;10.13;;;;;;;12.39;30.86;102223.03;5050855;28;20025;-83
2023/02/15 12:23:02;;;;;;;16.10;9.27;;;;;;;11.58;32.00;102230.81;5067486;28;20063;-82
2023/02/15 12:25:33;;;;;;;13.70;8.90;;;;;;;11.33;32.72;102242.78;5079071;28;20046;-83
2023/02/15 12:27:58;;;;;;;12.65;8.50;;;;;;;11.01;33.06;102219.41;5063220;28;20048;-82
2023/02/15 12:30:34;;;;;;;17.02;9.20;;;;;;;10.42;34.51;102234.00;5078543;28;20028;-81
2023/02/15 12:33:07;;;;;;;;;;;;;;;10.68;34.63;102237.28;5087867;28;20040;-81
2023/02/15 12:35:35;;;;;;;16.65;9.23;;;;;;;10.55;35.18;102233.88;5072464;28;20032;-81
2023/02/15 12:38:10;;;;;;;18.38;9.90;;;;;;;9.96;36.53;102237.56;5068270;28;20518;-82
2023/02/15 12:40:35;;;;;;;13.98;9.07;;;;;;;9.93;36.51;102238.66;5074396;28;20029;-83
2023/02/15 12:43:08;;;;;;;20.42;10.07;;;;;;;10.09;36.35;102234.75;5077728;28;20109;-82
2023/02/15 12:45:36;;;;;;;20.55;10.95;;;;;;;10.06;36.63;102237.69;5079648;28;20040;-83
2023/02/15 12:48:18;;;;;;;16.70;9.15;;;;;;;9.93;36.60;102233.28;5061376;28;20028;-82
2023/02/15 12:50:50;;;;;;;18.35;9.60;;;;;;;9.94;36.37;102242.19;5067896;28;20123;-82
2023/02/15 12:53:29;;;;;;;19.35;10.75;;;;;;;9.97;36.05;102238.41;5068285;28;20112;-81
2023/02/15 12:56:08;;;;;;;14.73;9.07;;;;;;;9.89;36.45;102231.78;5062378;28;20036;-81
2023/02/15 12:58:37;;;;;;;14.52;9.05;;;;;;;9.42;37.60;102230.06;5052328;28;20028;-81
2023/02/15 13:01:08;;;;;;;18.23;9.68;;;;;;;9.38;37.73;102232.09;5052167;28;20129;-81
2023/02/15 13:03:40;;;;;;;19.35;9.90;;;;;;;9.15;38.33;102235.63;5073297;28;20036;-82
2023/02/15 13:06:08;;;;;;;18.45;9.80;;;;;;;8.89;39.03;102235.72;5058495;28;20043;-83
2023/02/15 13:08:37;;;;;;;19.50;9.38;;;;;;;8.99;39.04;102228.72;5069183;28;20040;-82
2023/02/15 13:11:06;;;;;;;18.20;9.90;;;;;;;8.91;39.59;102233.78;5029494;28;20547;-83
2023/02/15 13:13:34;;;;;;;18.05;9.70;;;;;;;9.01;39.24;102224.09;5041554;28;20685;-85
2023/02/15 13:16:13;;;;;;;17.48;9.98;;;;;;;9.05;39.33;102236.31;5065574;28;20032;-84
2023/02/15 13:18:42;;;;;;;18.50;10.15;;;;;;;8.54;40.02;102212.28;5074664;28;20480;-82
2023/02/15 13:21:16;;;;;;;21.05;10.65;;;;;;;8.73;40.31;102237.78;5059426;28;20046;-82
2023/02/15 13:23:48;;;;;;;19.48;10.63;;;;;;;8.64;40.59;102229.47;5080975;28;20035;-83
2023/02/15 13:26:21;;;;;;;18.98;9.98;;;;;;;8.72;40.23;102194.03;5067033;28;20455;-84
2023/02/15 13:28:52;;;;;;;21.67;10.25;;;;;;;8.72;40.40;102230.72;5024503;28;20032;-83
2023/02/15 13:31:19;;;;;;;17.80;10.00;;;;;;;8.98;39.98;102229.69;5046749;28;20142;-82
2023/02/15 13:33:56;;;;;;;16.13;9.38;;;;;;;9.03;39.86;102222.16;5077198;28;20109;-81
2023/02/15 13:36:41;;;;;;;17.05;9.43;;;;;;;8.92;40.45;102226.59;5084617;28;20044;-83
2023/02/15 13:39:20;;;;;;;17.55;9.95;;;;;;;8.89;40.46;102230.34;5079844;28;20036;-83
2023/02/15 13:42:00;;;;;;;17.65;9.63;;;;;;;8.90;40.67;102216.00;5077533;28;20036;-84